LDA8I LOWW-EDLV
Flight info
| Callsign | LDA8I |
|---|---|
| Flight time | N/A |
| Altitude | 36000 |
| Route | BUWUT DCT DITIS DCT IPDUL DCT RAPET T170 GAPLA/N0388F240 Z190 WRB P12 ESADU/N0378F220 Z858 NUDGO/N0328F120 Z858 DOMUX DCT MISGO |
| Aircraft | A321/M-SDE3FGHIRWY/LB1 |
Departure
| Time | 2026-05-04 18:11 |
|---|---|
| Airport | Vienna International Airport (LOWW) |
Arrival
| Time | N/A |
|---|---|
| Airport | Weeze (Niederrhein) Airport (EDLV) |
| Time | Latitude | Longitude | Altitude | Speed | Heading |
|---|---|---|---|---|---|
| 2026-05-04 17:42 | 48.11468 | 16.57019 | 604 ft | 0 kts | 206° |
| 2026-05-04 18:04 | 48.11447 | 16.57004 | 605 ft | 7 kts | 205° |
| 2026-05-04 18:04 | 48.11362 | 16.57088 | 605 ft | 13 kts | 117° |
| 2026-05-04 18:05 | 48.11320 | 16.57220 | 604 ft | 14 kts | 114° |
| 2026-05-04 18:05 | 48.11333 | 16.57341 | 601 ft | 13 kts | 33° |
| 2026-05-04 18:05 | 48.11419 | 16.57407 | 600 ft | 16 kts | 25° |
| 2026-05-04 18:05 | 48.11538 | 16.57501 | 598 ft | 22 kts | 30° |
| 2026-05-04 18:06 | 48.11817 | 16.57466 | 593 ft | 18 kts | 342° |
| 2026-05-04 18:06 | 48.11873 | 16.57441 | 591 ft | 10 kts | 346° |
| 2026-05-04 18:06 | 48.11948 | 16.57411 | 590 ft | 10 kts | 342° |
| 2026-05-04 18:07 | 48.11953 | 16.57408 | 590 ft | 0 kts | 341° |
| 2026-05-04 18:07 | 48.11984 | 16.57409 | 589 ft | 8 kts | 27° |
| 2026-05-04 18:07 | 48.12011 | 16.57492 | 588 ft | 9 kts | 93° |
| 2026-05-04 18:08 | 48.11997 | 16.57586 | 589 ft | 5 kts | 105° |
| 2026-05-04 18:08 | 48.11996 | 16.57589 | 589 ft | 0 kts | 105° |
| 2026-05-04 18:08 | 48.11995 | 16.57594 | 589 ft | 2 kts | 106° |
| 2026-05-04 18:08 | 48.11993 | 16.57605 | 589 ft | 0 kts | 107° |
| 2026-05-04 18:09 | 48.11933 | 16.57813 | 590 ft | 15 kts | 137° |
| 2026-05-04 18:09 | 48.11876 | 16.57863 | 590 ft | 0 kts | 162° |
| 2026-05-04 18:10 | 48.11830 | 16.57883 | 591 ft | 29 kts | 164° |
| 2026-05-04 18:11 | 48.11395 | 16.58071 | 592 ft | 98 kts | 163° |
| 2026-05-04 18:11 | 48.10543 | 16.58427 | 600 ft | 154 kts | 164° |
| 2026-05-04 18:11 | 48.09448 | 16.58863 | 974 ft | 166 kts | 164° |
| 2026-05-04 18:11 | 48.08344 | 16.59321 | 1578 ft | 166 kts | 164° |
| 2026-05-04 18:12 | 48.07268 | 16.59778 | 2278 ft | 161 kts | 165° |
| 2026-05-04 18:12 | 48.06187 | 16.60310 | 2700 ft | 173 kts | 154° |
| 2026-05-04 18:12 | 48.05291 | 16.61649 | 3011 ft | 196 kts | 123° |
| 2026-05-04 18:12 | 48.04987 | 16.63735 | 3294 ft | 227 kts | 89° |
| 2026-05-04 18:13 | 48.05657 | 16.66020 | 3626 ft | 258 kts | 52° |
| 2026-05-04 18:13 | 48.06998 | 16.67957 | 4042 ft | 277 kts | 45° |
| 2026-05-04 18:13 | 48.09962 | 16.71863 | 5393 ft | 289 kts | 44° |
| 2026-05-04 18:14 | 48.11441 | 16.73872 | 6160 ft | 291 kts | 43° |
| 2026-05-04 18:14 | 48.12947 | 16.75949 | 6920 ft | 294 kts | 43° |
| 2026-05-04 18:14 | 48.14467 | 16.77941 | 7651 ft | 296 kts | 35° |
| 2026-05-04 18:15 | 48.18404 | 16.78700 | 9016 ft | 297 kts | 347° |
| 2026-05-04 18:15 | 48.21916 | 16.75846 | 10303 ft | 295 kts | 302° |
| 2026-05-04 18:15 | 48.23003 | 16.73178 | 10691 ft | 306 kts | 296° |
| 2026-05-04 18:16 | 48.24052 | 16.70325 | 11032 ft | 322 kts | 296° |
| 2026-05-04 18:16 | 48.25185 | 16.67345 | 11360 ft | 336 kts | 297° |
| 2026-05-04 18:16 | 48.26378 | 16.64350 | 11941 ft | 341 kts | 298° |
| 2026-05-04 18:17 | 48.28903 | 16.58249 | 13234 ft | 346 kts | 300° |
| 2026-05-04 18:17 | 48.30183 | 16.55209 | 13850 ft | 348 kts | 300° |
| 2026-05-04 18:17 | 48.32780 | 16.49076 | 15052 ft | 353 kts | 300° |
| 2026-05-04 18:18 | 48.34112 | 16.45937 | 15644 ft | 356 kts | 300° |
| 2026-05-04 18:18 | 48.35430 | 16.42830 | 16212 ft | 358 kts | 301° |
| 2026-05-04 18:18 | 48.36784 | 16.39641 | 16772 ft | 361 kts | 301° |
| 2026-05-04 18:18 | 48.38124 | 16.36481 | 17347 ft | 363 kts | 301° |
| 2026-05-04 18:19 | 48.40865 | 16.30008 | 18430 ft | 368 kts | 300° |
| 2026-05-04 18:19 | 48.42241 | 16.26750 | 18969 ft | 370 kts | 300° |
| 2026-05-04 18:19 | 48.43610 | 16.23504 | 19477 ft | 371 kts | 300° |
| 2026-05-04 18:20 | 48.44996 | 16.20216 | 19983 ft | 373 kts | 300° |
| 2026-05-04 18:20 | 48.46378 | 16.16933 | 20464 ft | 376 kts | 301° |
| 2026-05-04 18:20 | 48.47773 | 16.13617 | 20938 ft | 378 kts | 301° |
| 2026-05-04 18:20 | 48.49186 | 16.10253 | 21404 ft | 380 kts | 301° |
| 2026-05-04 18:21 | 48.50590 | 16.06907 | 21866 ft | 382 kts | 301° |
| 2026-05-04 18:21 | 48.52034 | 16.03462 | 22330 ft | 383 kts | 301° |
| 2026-05-04 18:21 | 48.53456 | 16.00063 | 22770 ft | 385 kts | 301° |
| 2026-05-04 18:21 | 48.54875 | 15.96668 | 23211 ft | 386 kts | 301° |
| 2026-05-04 18:22 | 48.56311 | 15.93226 | 23655 ft | 388 kts | 301° |
| 2026-05-04 18:22 | 48.57735 | 15.89807 | 24060 ft | 390 kts | 301° |
| 2026-05-04 18:22 | 48.59181 | 15.86335 | 24463 ft | 392 kts | 301° |
| 2026-05-04 18:22 | 48.60643 | 15.82819 | 24840 ft | 394 kts | 301° |
| 2026-05-04 18:23 | 48.62090 | 15.79336 | 25211 ft | 396 kts | 301° |
| 2026-05-04 18:23 | 48.63555 | 15.75801 | 25597 ft | 398 kts | 301° |
| 2026-05-04 18:23 | 48.65029 | 15.72243 | 25955 ft | 400 kts | 301° |
| 2026-05-04 18:23 | 48.66508 | 15.68667 | 26294 ft | 402 kts | 301° |
| 2026-05-04 18:24 | 48.67996 | 15.65062 | 26622 ft | 404 kts | 301° |
| 2026-05-04 18:24 | 48.69468 | 15.61493 | 26945 ft | 407 kts | 301° |
| 2026-05-04 18:24 | 48.70970 | 15.57847 | 27262 ft | 409 kts | 301° |
| 2026-05-04 18:24 | 48.72470 | 15.54199 | 27580 ft | 411 kts | 301° |
| 2026-05-04 18:25 | 48.73977 | 15.50529 | 27913 ft | 412 kts | 301° |
| 2026-05-04 18:25 | 48.75485 | 15.46854 | 28221 ft | 414 kts | 301° |
| 2026-05-04 18:25 | 48.77005 | 15.43142 | 28534 ft | 415 kts | 301° |
| 2026-05-04 18:25 | 48.78535 | 15.39404 | 28831 ft | 417 kts | 301° |
| 2026-05-04 18:26 | 48.80058 | 15.35674 | 29102 ft | 419 kts | 301° |
| 2026-05-04 18:26 | 48.81574 | 15.31956 | 29379 ft | 421 kts | 301° |
| 2026-05-04 18:26 | 48.83112 | 15.28177 | 29650 ft | 422 kts | 301° |
| 2026-05-04 18:26 | 48.84661 | 15.24365 | 29921 ft | 424 kts | 301° |
| 2026-05-04 18:27 | 48.86208 | 15.20551 | 30197 ft | 425 kts | 301° |
| 2026-05-04 18:27 | 48.87760 | 15.16722 | 30472 ft | 426 kts | 301° |
| 2026-05-04 18:27 | 48.89306 | 15.12902 | 30818 ft | 425 kts | 301° |
| 2026-05-04 18:27 | 48.90851 | 15.09116 | 31187 ft | 424 kts | 301° |
| 2026-05-04 18:28 | 48.92427 | 15.05301 | 31522 ft | 423 kts | 301° |
| 2026-05-04 18:28 | 48.93987 | 15.01532 | 31841 ft | 422 kts | 301° |
| 2026-05-04 18:28 | 48.95543 | 14.97763 | 32151 ft | 422 kts | 301° |
| 2026-05-04 18:28 | 48.97090 | 14.94008 | 32439 ft | 422 kts | 301° |
| 2026-05-04 18:29 | 48.98651 | 14.90205 | 32707 ft | 422 kts | 301° |
| 2026-05-04 18:29 | 49.00188 | 14.86458 | 32982 ft | 421 kts | 301° |
| 2026-05-04 18:29 | 49.01741 | 14.82661 | 33270 ft | 421 kts | 301° |
| 2026-05-04 18:29 | 49.03286 | 14.78881 | 33549 ft | 420 kts | 300° |
| 2026-05-04 18:30 | 49.06352 | 14.71364 | 34069 ft | 420 kts | 300° |
| 2026-05-04 18:30 | 49.07899 | 14.67559 | 34313 ft | 420 kts | 300° |
| 2026-05-04 18:30 | 49.09433 | 14.63784 | 34517 ft | 420 kts | 300° |
| 2026-05-04 18:31 | 49.10975 | 14.59980 | 34695 ft | 421 kts | 300° |
| 2026-05-04 18:31 | 49.12502 | 14.56210 | 34841 ft | 422 kts | 300° |
| 2026-05-04 18:31 | 49.14031 | 14.52428 | 34989 ft | 424 kts | 300° |
| 2026-05-04 18:31 | 49.15586 | 14.48577 | 35147 ft | 424 kts | 300° |
| 2026-05-04 18:32 | 49.17130 | 14.44752 | 35303 ft | 425 kts | 300° |
| 2026-05-04 18:32 | 49.18687 | 14.40884 | 35448 ft | 425 kts | 300° |
| 2026-05-04 18:32 | 49.20235 | 14.37033 | 35583 ft | 426 kts | 300° |
| 2026-05-04 18:32 | 49.21788 | 14.33166 | 35724 ft | 427 kts | 299° |
| 2026-05-04 18:33 | 49.23331 | 14.29322 | 35873 ft | 427 kts | 299° |
| 2026-05-04 18:33 | 49.26444 | 14.21541 | 35951 ft | 428 kts | 299° |
| 2026-05-04 18:34 | 49.29550 | 14.13753 | 35954 ft | 428 kts | 299° |
| 2026-05-04 18:34 | 49.32648 | 14.05962 | 35959 ft | 428 kts | 299° |
| 2026-05-04 18:35 | 49.35740 | 13.98162 | 35960 ft | 428 kts | 298° |
| 2026-05-04 18:35 | 49.38818 | 13.90372 | 35964 ft | 428 kts | 298° |
| 2026-05-04 18:36 | 49.41989 | 13.82671 | 35960 ft | 429 kts | 302° |
| 2026-05-04 18:36 | 49.45615 | 13.75433 | 35960 ft | 430 kts | 306° |
| 2026-05-04 18:37 | 49.49397 | 13.68338 | 35957 ft | 430 kts | 307° |
| 2026-05-04 18:37 | 49.53182 | 13.61223 | 35958 ft | 431 kts | 306° |
| 2026-05-04 18:38 | 49.56946 | 13.54120 | 35955 ft | 431 kts | 306° |
| 2026-05-04 18:38 | 49.60715 | 13.46983 | 35948 ft | 430 kts | 306° |
| 2026-05-04 18:39 | 49.64465 | 13.39858 | 35950 ft | 430 kts | 306° |
| 2026-05-04 18:39 | 49.68214 | 13.32717 | 35954 ft | 430 kts | 306° |
| 2026-05-04 18:40 | 49.71996 | 13.25494 | 35956 ft | 430 kts | 305° |
| 2026-05-04 18:40 | 49.75734 | 13.18334 | 35949 ft | 431 kts | 305° |
| 2026-05-04 18:41 | 49.79487 | 13.11128 | 35943 ft | 431 kts | 305° |
| 2026-05-04 18:41 | 49.83223 | 13.03929 | 35942 ft | 431 kts | 306° |
| 2026-05-04 18:42 | 49.86969 | 12.96696 | 35948 ft | 431 kts | 305° |
| 2026-05-04 18:42 | 49.90711 | 12.89450 | 35957 ft | 430 kts | 305° |
| 2026-05-04 18:43 | 49.94441 | 12.82207 | 35960 ft | 430 kts | 305° |
| 2026-05-04 18:43 | 49.98168 | 12.74950 | 35966 ft | 431 kts | 305° |
| 2026-05-04 18:44 | 50.01908 | 12.67645 | 35968 ft | 431 kts | 305° |
| 2026-05-04 18:44 | 50.05626 | 12.60364 | 35970 ft | 431 kts | 305° |
| 2026-05-04 18:45 | 50.09329 | 12.53090 | 35962 ft | 431 kts | 305° |
| 2026-05-04 18:45 | 50.13047 | 12.45763 | 35964 ft | 431 kts | 305° |
| 2026-05-04 18:46 | 50.16547 | 12.38265 | 35962 ft | 428 kts | 300° |
| 2026-05-04 18:46 | 50.19491 | 12.30231 | 35959 ft | 426 kts | 293° |
| 2026-05-04 18:47 | 50.21833 | 12.21765 | 35959 ft | 425 kts | 287° |
| 2026-05-04 18:47 | 50.23838 | 12.13077 | 35962 ft | 425 kts | 287° |
| 2026-05-04 18:48 | 50.25815 | 12.04430 | 35962 ft | 425 kts | 287° |
| 2026-05-04 18:48 | 50.27812 | 11.95729 | 35970 ft | 424 kts | 287° |
| 2026-05-04 18:49 | 50.29809 | 11.87037 | 35975 ft | 424 kts | 287° |
| 2026-05-04 18:49 | 50.31786 | 11.78392 | 35976 ft | 423 kts | 287° |
| 2026-05-04 18:50 | 50.33757 | 11.69719 | 35974 ft | 423 kts | 287° |
| 2026-05-04 18:50 | 50.34767 | 11.60867 | 35932 ft | 413 kts | 264° |
| 2026-05-04 18:50 | 50.34273 | 11.56515 | 35573 ft | 407 kts | 251° |
| 2026-05-04 18:51 | 50.33115 | 11.52487 | 34855 ft | 409 kts | 238° |
| 2026-05-04 18:51 | 50.31337 | 11.49039 | 33887 ft | 414 kts | 224° |
| 2026-05-04 18:51 | 50.29028 | 11.46369 | 32955 ft | 420 kts | 211° |
| 2026-05-04 18:51 | 50.26308 | 11.44644 | 32028 ft | 427 kts | 198° |
| 2026-05-04 18:52 | 50.23342 | 11.43999 | 31113 ft | 435 kts | 184° |
| 2026-05-04 18:52 | 50.20354 | 11.44494 | 30303 ft | 440 kts | 171° |
| 2026-05-04 18:52 | 50.17473 | 11.46082 | 29323 ft | 440 kts | 156° |
| 2026-05-04 18:52 | 50.14929 | 11.48683 | 28356 ft | 438 kts | 143° |
| 2026-05-04 18:53 | 50.12878 | 11.52133 | 27392 ft | 435 kts | 128° |
| 2026-05-04 18:53 | 50.11454 | 11.56238 | 26439 ft | 433 kts | 113° |
| 2026-05-04 18:53 | 50.10758 | 11.60728 | 25502 ft | 430 kts | 97° |
| 2026-05-04 18:53 | 50.10845 | 11.65328 | 24569 ft | 427 kts | 81° |
| 2026-05-04 18:54 | 50.11721 | 11.69687 | 23637 ft | 423 kts | 64° |